createdAt,value
2023-02-11T00:02:34.749Z,45.40
2023-02-11T00:07:56.515Z,48.17
2023-02-11T00:13:18.246Z,43.87
2023-02-11T00:18:40.031Z,41.93
2023-02-11T00:24:02.324Z,43.70
2023-02-11T00:29:24.606Z,47.67
2023-02-11T00:34:46.389Z,45.90
2023-02-11T00:40:08.630Z,46.57
2023-02-11T00:45:30.721Z,41.13
2023-02-11T00:50:52.454Z,44.73
2023-02-11T00:56:14.254Z,45.70
2023-02-11T01:01:36.085Z,48.23
2023-02-11T01:06:57.835Z,42.63
2023-02-11T01:12:19.859Z,43.53
2023-02-11T01:17:42.140Z,45.37
2023-02-11T01:23:03.870Z,43.30
2023-02-11T01:28:29.297Z,46.87
2023-02-11T01:33:51.059Z,48.63
2023-02-11T01:39:12.852Z,49.73
2023-02-11T01:44:37.554Z,46.60
2023-02-11T01:50:02.228Z,45.33
2023-02-11T01:55:42.607Z,39.67
2023-02-11T02:01:05.829Z,39.27
2023-02-11T02:06:40.803Z,42.27
2023-02-11T02:12:02.565Z,40.27
2023-02-11T02:17:36.069Z,48.07
2023-02-11T02:23:10.054Z,45.37
2023-02-11T02:29:11.976Z,48.57
2023-02-11T02:35:13.165Z,44.43
2023-02-11T02:40:43.816Z,43.47
2023-02-11T02:46:17.242Z,44.40
2023-02-11T02:52:03.039Z,48.43
2023-02-11T02:58:04.286Z,43.70
2023-02-11T03:03:42.093Z,47.07
2023-02-11T03:09:14.379Z,49.47
2023-02-11T03:14:37.620Z,45.90
2023-02-11T03:20:01.086Z,50.00
2023-02-11T03:25:34.252Z,38.70
2023-02-11T03:31:14.560Z,40.27
2023-02-11T03:36:45.882Z,40.23
2023-02-11T03:42:10.666Z,38.93
2023-02-11T03:47:38.049Z,46.60
2023-02-11T03:53:02.639Z,44.67
2023-02-11T03:58:24.754Z,41.53
2023-02-11T04:03:46.474Z,40.60
2023-02-11T04:09:08.802Z,40.03
2023-02-11T04:14:30.545Z,41.73
2023-02-11T04:19:52.271Z,43.77
2023-02-11T04:25:14.053Z,46.03
2023-02-11T04:30:35.806Z,46.30
2023-02-11T04:35:57.570Z,48.07
2023-02-11T04:41:19.355Z,42.07
2023-02-11T04:46:41.131Z,44.50
2023-02-11T04:52:02.871Z,41.57
2023-02-11T04:57:24.664Z,44.80
2023-02-11T05:02:46.411Z,45.63
2023-02-11T05:08:09.209Z,43.43
2023-02-11T05:13:31.611Z,44.23
2023-02-11T05:18:55.408Z,39.67
2023-02-11T05:24:17.141Z,45.20
2023-02-11T05:29:40.002Z,47.23
2023-02-11T05:35:01.800Z,41.27
2023-02-11T05:40:23.582Z,39.20
2023-02-11T05:45:45.311Z,43.77
2023-02-11T05:51:07.046Z,43.30
2023-02-11T05:56:28.944Z,41.87
2023-02-11T06:01:50.900Z,37.50
2023-02-11T06:07:12.616Z,39.10
2023-02-11T06:12:35.683Z,42.47
2023-02-11T06:17:57.439Z,37.83
2023-02-11T06:23:19.252Z,39.63
2023-02-11T06:28:42.104Z,38.10
2023-02-11T06:34:04.969Z,40.40
2023-02-11T06:39:26.773Z,39.07
2023-02-11T06:44:48.482Z,41.43
2023-02-11T06:50:12.828Z,38.83
2023-02-11T06:55:35.269Z,42.07
2023-02-11T07:00:57.288Z,42.70
2023-02-11T07:06:21.851Z,40.23
2023-02-11T07:11:43.590Z,46.13
2023-02-11T07:17:05.336Z,39.13
2023-02-11T07:22:27.281Z,41.37
2023-02-11T07:27:50.113Z,39.60
2023-02-11T07:33:11.834Z,36.70
2023-02-11T07:38:34.811Z,39.00
2023-02-11T07:43:56.708Z,41.70
2023-02-11T07:49:18.499Z,39.53
2023-02-11T07:54:40.366Z,43.43
2023-02-11T08:00:02.612Z,45.57
2023-02-11T08:05:24.359Z,41.80
2023-02-11T08:10:46.074Z,40.60
2023-02-11T08:16:08.502Z,38.13
2023-02-11T08:21:30.655Z,33.17
2023-02-11T08:26:52.391Z,29.10
2023-02-11T08:32:14.197Z,39.50
2023-02-11T08:37:36.006Z,36.23
2023-02-11T08:42:57.814Z,47.57
2023-02-11T08:48:19.527Z,41.10
2023-02-11T08:53:41.338Z,38.67
2023-02-11T08:59:03.328Z,39.57
2023-02-11T09:04:25.144Z,38.63
2023-02-11T09:09:46.870Z,41.83
2023-02-11T09:15:09.045Z,41.80
2023-02-11T09:20:31.287Z,41.83
2023-02-11T09:25:53.117Z,44.37
2023-02-11T09:31:17.982Z,41.83
2023-02-11T09:36:41.126Z,42.00
2023-02-11T09:42:33.993Z,39.47
2023-02-11T09:48:00.304Z,41.07
2023-02-11T09:53:35.368Z,43.20
2023-02-11T09:58:57.117Z,38.70
2023-02-11T10:04:56.042Z,42.33
2023-02-11T10:10:35.313Z,36.67
2023-02-11T10:16:21.864Z,38.67
2023-02-11T10:22:01.823Z,37.77
2023-02-11T10:27:30.772Z,37.67
2023-02-11T10:32:59.577Z,44.97
2023-02-11T10:38:21.581Z,37.20
2023-02-11T10:43:43.614Z,36.00
2023-02-11T10:49:05.678Z,37.67
2023-02-11T10:54:27.434Z,40.10
2023-02-11T10:59:49.408Z,42.77
2023-02-11T11:05:20.096Z,34.30
2023-02-11T11:10:44.806Z,42.00
2023-02-11T11:16:12.361Z,35.53
2023-02-11T11:21:54.829Z,31.77
2023-02-11T11:27:23.445Z,25.17
2023-02-11T11:32:45.978Z,26.57
2023-02-11T11:38:14.919Z,25.17
2023-02-11T11:43:37.607Z,17.70
2023-02-11T11:49:22.144Z,17.00
2023-02-11T11:54:47.752Z,19.60
2023-02-11T12:00:30.669Z,19.83
2023-02-11T12:06:23.705Z,16.80
2023-02-11T12:12:03.697Z,16.00
2023-02-11T12:17:44.614Z,19.80
2023-02-11T12:23:24.131Z,17.20
2023-02-11T12:29:20.419Z,13.23
2023-02-11T12:34:50.423Z,16.88
2023-02-11T12:40:31.047Z,13.20
2023-02-11T12:46:07.847Z,15.68
2023-02-11T12:51:54.842Z,11.63
2023-02-11T12:57:26.552Z,15.32
2023-02-11T13:03:05.384Z,10.82
2023-02-11T13:08:33.606Z,10.10
2023-02-11T13:14:10.655Z,12.50
2023-02-11T13:19:43.317Z,10.20
2023-02-11T13:25:30.686Z,12.07
2023-02-11T13:31:02.138Z,15.45
2023-02-11T13:36:30.167Z,16.85
2023-02-11T13:42:02.876Z,21.27
2023-02-11T13:47:36.597Z,20.00
2023-02-11T13:53:01.407Z,20.80
2023-02-11T13:58:28.987Z,25.60
2023-02-11T14:04:38.815Z,24.25
2023-02-11T14:10:00.558Z,24.77
2023-02-11T14:15:26.310Z,25.38
2023-02-11T14:20:48.967Z,22.98
2023-02-11T14:26:20.180Z,22.48
2023-02-11T14:32:06.118Z,21.50
2023-02-11T14:37:50.912Z,22.10
2023-02-11T14:43:19.350Z,23.15
2023-02-11T14:48:46.820Z,20.63
2023-02-11T14:54:18.774Z,18.25
2023-02-11T14:59:54.880Z,20.45
2023-02-11T15:05:23.637Z,18.23
2023-02-11T15:10:45.477Z,20.40
2023-02-11T15:16:11.055Z,20.40
2023-02-11T15:21:35.871Z,20.63
2023-02-11T15:27:08.016Z,19.95
2023-02-11T15:32:29.826Z,20.92
2023-02-11T15:37:51.969Z,24.02
2023-02-11T15:43:13.693Z,23.17
2023-02-11T15:48:41.507Z,22.55
2023-02-11T15:54:07.676Z,19.07
2023-02-11T15:59:38.337Z,23.35
2023-02-11T16:05:04.398Z,23.60
2023-02-11T16:10:30.691Z,22.40
2023-02-11T16:15:58.191Z,22.00
2023-02-11T16:21:21.676Z,24.55
2023-02-11T16:26:53.214Z,23.20
2023-02-11T16:32:20.913Z,27.90
2023-02-11T16:37:42.709Z,25.27
2023-02-11T16:43:04.547Z,25.00
2023-02-11T16:48:26.454Z,25.33
2023-02-11T16:53:48.272Z,25.15
2023-02-11T16:59:10.269Z,25.15
2023-02-11T17:04:33.642Z,25.90
2023-02-11T17:09:55.973Z,30.13
2023-02-11T17:15:17.731Z,27.25
2023-02-11T17:20:39.447Z,25.25
2023-02-11T17:26:01.154Z,25.88
2023-02-11T17:31:23.369Z,27.30
2023-02-11T17:36:45.139Z,25.73
2023-02-11T17:42:07.902Z,23.83
2023-02-11T17:47:29.961Z,27.10
2023-02-11T17:52:51.705Z,27.23
2023-02-11T17:58:13.514Z,29.60
2023-02-11T18:03:35.249Z,25.27
2023-02-11T18:08:59.604Z,23.63
2023-02-11T18:14:22.451Z,31.63
2023-02-11T18:19:44.181Z,28.83
2023-02-11T18:25:08.130Z,30.27
2023-02-11T18:30:34.357Z,28.40
2023-02-11T18:35:56.475Z,29.07
2023-02-11T18:41:18.207Z,28.53
2023-02-11T18:46:40.925Z,30.03
2023-02-11T18:52:03.584Z,31.40
2023-02-11T18:57:25.642Z,29.73
2023-02-11T19:02:47.367Z,28.87
2023-02-11T19:08:09.407Z,32.47
2023-02-11T19:13:31.127Z,27.83
2023-02-11T19:18:53.002Z,34.93
2023-02-11T19:24:18.918Z,30.48
2023-02-11T19:29:40.633Z,30.73
2023-02-11T19:35:03.770Z,32.67
2023-02-11T19:40:25.494Z,32.33
2023-02-11T19:45:47.303Z,32.43
2023-02-11T19:51:13.185Z,37.15
2023-02-11T19:56:35.310Z,34.07
2023-02-11T20:01:57.603Z,31.65
2023-02-11T20:07:19.836Z,30.23
2023-02-11T20:12:41.563Z,33.38
2023-02-11T20:18:03.446Z,34.97
2023-02-11T20:23:25.178Z,34.90
2023-02-11T20:28:48.249Z,31.92
2023-02-11T20:34:11.177Z,32.10
2023-02-11T20:39:33.334Z,35.45
2023-02-11T20:44:55.041Z,31.20
2023-02-11T20:50:17.063Z,34.27
2023-02-11T20:55:39.351Z,37.33
2023-02-11T21:01:19.261Z,40.17
2023-02-11T21:06:43.978Z,37.33
2023-02-11T21:12:06.383Z,32.93
2023-02-11T21:17:28.170Z,34.73
2023-02-11T21:22:49.897Z,34.13
2023-02-11T21:28:11.686Z,33.53
2023-02-11T21:33:34.521Z,35.20
2023-02-11T21:38:56.362Z,33.78
2023-02-11T21:44:18.483Z,33.92
2023-02-11T21:49:40.271Z,35.10
2023-02-11T21:55:02.011Z,34.72
2023-02-11T22:00:23.862Z,39.13
2023-02-11T22:05:45.593Z,37.85
2023-02-11T22:11:10.535Z,38.10
2023-02-11T22:16:32.358Z,42.97
2023-02-11T22:21:54.111Z,41.50
2023-02-11T22:27:20.115Z,44.27
2023-02-11T22:32:42.492Z,41.28
2023-02-11T22:38:04.526Z,41.00
2023-02-11T22:43:27.646Z,45.83
2023-02-11T22:48:49.841Z,50.23
2023-02-11T22:54:14.620Z,44.08
2023-02-11T22:59:36.334Z,48.63
2023-02-11T23:04:59.355Z,45.67
2023-02-11T23:10:21.193Z,42.13
2023-02-11T23:15:46.367Z,43.07
2023-02-11T23:21:21.084Z,41.97
2023-02-11T23:26:43.823Z,39.73
2023-02-11T23:32:05.619Z,42.90
2023-02-11T23:37:27.368Z,45.13
2023-02-11T23:42:49.145Z,41.43
2023-02-11T23:48:10.929Z,45.53
2023-02-11T23:53:32.631Z,42.93
2023-02-11T23:58:57.544Z,43.40
